Time;durP1;ratioP1;P1;durP2;ratioP2;P2;SDS_P1;SDS_P2;PMS_P1;PMS_P2;Temp;Humidity;BMP_temperature;BMP_pressure;BME280_temperature;BME280_humidity;BME280_pressure;Samples;Min_cycle;Max_cycle;Signal;HPM_P1;HPM_P2
2021/05/09 00:02:25;;;;;;;3.42;2.50;;;;;;;9.44;53.66;100586.31;4996426;28;20613;-82
2021/05/09 00:04:52;;;;;;;4.07;3.15;;;;;;;9.44;56.20;100583.66;4996503;28;20450;-81
2021/05/09 00:07:18;;;;;;;4.28;3.17;;;;;;;9.50;54.12;100592.34;4963510;28;20042;-80
2021/05/09 00:09:44;;;;;;;3.22;2.85;;;;;;;9.43;53.56;100588.06;4980122;28;20046;-81
2021/05/09 00:12:11;;;;;;;3.92;3.13;;;;;;;9.40;55.19;100581.97;5012988;28;20045;-81
2021/05/09 00:14:38;;;;;;;4.03;2.50;;;;;;;9.44;55.87;100575.75;4979498;28;20038;-81
2021/05/09 00:17:04;;;;;;;5.53;2.88;;;;;;;9.43;55.67;100571.38;5011743;28;20045;-79
2021/05/09 00:19:31;;;;;;;4.13;3.25;;;;;;;9.60;57.49;100564.03;5012275;28;20065;-81
2021/05/09 00:21:57;;;;;;;3.55;2.80;;;;;;;9.59;56.46;100564.94;4979923;28;20104;-81
2021/05/09 00:24:23;;;;;;;5.97;4.30;;;;;;;9.61;56.08;100568.41;4978936;28;20458;-80
2021/05/09 00:26:49;;;;;;;7.88;5.57;;;;;;;9.57;53.76;100553.53;4995621;28;20053;-81
2021/05/09 00:29:15;;;;;;;6.40;4.95;;;;;;;9.49;53.90;100556.31;4995573;28;20100;-81
2021/05/09 00:31:41;;;;;;;6.97;4.53;;;;;;;9.46;54.79;100559.00;5012270;28;20038;-81
2021/05/09 00:34:07;;;;;;;6.50;4.18;;;;;;;9.49;54.70;100563.34;4980284;28;20046;-82
2021/05/09 00:36:34;;;;;;;5.78;3.45;;;;;;;9.51;54.71;100562.44;4995789;28;20050;-82
2021/05/09 00:39:00;;;;;;;5.32;3.78;;;;;;;9.46;56.13;100569.56;4983515;28;20060;-81
2021/05/09 00:41:26;;;;;;;6.28;4.18;;;;;;;9.42;55.70;100564.38;4998135;28;20053;-83
2021/05/09 00:43:52;;;;;;;4.63;3.80;;;;;;;9.38;56.69;100562.69;5018365;28;20037;-82
2021/05/09 00:46:18;;;;;;;5.53;4.20;;;;;;;9.37;55.63;100561.81;4990295;28;20078;-82
2021/05/09 00:48:45;;;;;;;5.78;4.10;;;;;;;9.36;57.02;100567.97;4997903;28;20046;-84
2021/05/09 00:51:11;;;;;;;6.50;4.28;;;;;;;9.38;56.63;100570.59;4997182;28;20120;-80
2021/05/09 00:53:40;;;;;;;7.30;4.20;;;;;;;9.34;55.53;100574.19;4981965;28;20418;-81
2021/05/09 00:56:06;;;;;;;8.23;4.57;;;;;;;9.25;57.04;100562.03;4981584;28;20391;-80
2021/05/09 00:58:35;;;;;;;6.78;4.95;;;;;;;9.29;57.77;100558.44;4982767;28;20050;-81
2021/05/09 01:01:01;;;;;;;4.10;3.70;;;;;;;9.41;54.99;100559.97;4981669;28;20049;-82
2021/05/09 01:03:31;;;;;;;4.68;3.88;;;;;;;9.43;54.92;100561.72;4983431;28;20038;-83
2021/05/09 01:05:59;;;;;;;4.28;3.47;;;;;;;9.44;55.68;100571.34;4965943;28;20053;-80
2021/05/09 01:08:27;;;;;;;4.68;3.67;;;;;;;9.41;55.38;100557.34;5015470;28;20052;-82
2021/05/09 01:10:54;;;;;;;4.38;3.33;;;;;;;9.42;55.87;100559.97;4998924;28;20041;-80
2021/05/09 01:13:21;;;;;;;4.22;3.22;;;;;;;9.36;56.85;100552.16;4996594;28;20072;-80
2021/05/09 01:15:47;;;;;;;4.03;2.97;;;;;;;9.39;57.61;100549.47;4982484;28;20524;-82
2021/05/09 01:18:14;;;;;;;5.60;3.50;;;;;;;9.43;57.73;100547.66;4989226;28;20049;-81
2021/05/09 01:20:40;;;;;;;4.82;3.70;;;;;;;9.46;58.18;100542.31;5021953;28;20033;-82
2021/05/09 01:23:06;;;;;;;3.67;3.30;;;;;;;9.37;58.58;100542.47;5004493;28;20034;-80
2021/05/09 01:25:33;;;;;;;3.58;3.00;;;;;;;9.40;58.87;100531.88;4998035;28;20247;-80
2021/05/09 01:28:01;;;;;;;4.32;3.50;;;;;;;9.51;56.34;100529.94;4981105;28;20522;-82
2021/05/09 01:30:27;;;;;;;4.47;3.33;;;;;;;9.53;54.38;100521.09;4981932;28;20444;-82
2021/05/09 01:32:53;;;;;;;7.72;3.58;;;;;;;9.51;56.42;100514.09;4982161;28;20052;-81
2021/05/09 01:35:19;;;;;;;4.63;3.22;;;;;;;9.56;59.35;100505.19;4981779;28;20041;-82
2021/05/09 01:37:46;;;;;;;3.50;3.20;;;;;;;9.48;57.92;100509.72;4998445;28;20042;-82
2021/05/09 01:40:13;;;;;;;3.50;3.10;;;;;;;9.47;58.22;100507.13;4985964;28;20645;-83
2021/05/09 01:42:41;;;;;;;4.45;3.45;;;;;;;9.54;56.54;100512.28;4982459;28;20519;-82
2021/05/09 01:45:08;;;;;;;4.20;3.78;;;;;;;9.43;56.64;100503.69;4963354;28;20431;-80
2021/05/09 01:47:36;;;;;;;3.75;3.22;;;;;;;9.40;57.42;100495.81;4981798;28;20077;-82
2021/05/09 01:50:05;;;;;;;3.95;3.28;;;;;;;9.45;59.32;100499.25;4997330;28;20056;-84
2021/05/09 01:52:31;;;;;;;3.63;3.15;;;;;;;9.54;60.78;100496.44;4997724;28;20045;-82
2021/05/09 01:54:57;;;;;;;4.55;3.67;;;;;;;9.54;59.40;100475.34;4996864;28;20041;-81
2021/05/09 01:57:23;;;;;;;3.50;3.17;;;;;;;9.49;58.76;100476.31;5013530;28;20046;-81
2021/05/09 01:59:50;;;;;;;4.90;3.75;;;;;;;9.56;59.01;100480.59;5013814;28;20038;-82
2021/05/09 02:02:16;;;;;;;4.13;3.50;;;;;;;9.47;58.40;100480.75;5014011;28;20048;-81
2021/05/09 02:04:42;;;;;;;4.68;3.63;;;;;;;9.42;59.04;100472.97;5013780;28;20065;-80
2021/05/09 02:07:08;;;;;;;3.95;3.55;;;;;;;9.59;56.74;100478.78;4997290;28;20490;-81
2021/05/09 02:09:34;;;;;;;4.13;3.70;;;;;;;9.45;56.16;100478.16;4977347;28;20105;-81
2021/05/09 02:12:00;;;;;;;3.70;3.30;;;;;;;9.59;57.00;100472.63;4998664;28;20055;-81
2021/05/09 02:14:26;;;;;;;5.35;3.63;;;;;;;9.52;57.83;100478.91;4982460;28;20092;-80
2021/05/09 02:16:52;;;;;;;5.55;3.80;;;;;;;9.51;58.73;100472.78;5027333;28;20099;-82
2021/05/09 02:19:19;;;;;;;4.22;3.55;;;;;;;9.47;59.10;100471.09;4966112;28;20053;-82
2021/05/09 02:21:45;;;;;;;3.78;3.38;;;;;;;9.49;59.04;100474.56;4981875;28;20140;-80
2021/05/09 02:24:12;;;;;;;6.53;4.35;;;;;;;9.65;57.59;100469.84;4977064;28;20050;-81
2021/05/09 02:26:38;;;;;;;3.70;3.38;;;;;;;9.55;57.51;100458.63;5011927;28;20053;-80
2021/05/09 02:29:04;;;;;;;4.88;3.75;;;;;;;9.46;58.37;100456.16;5014220;28;20462;-81
2021/05/09 02:31:30;;;;;;;4.82;3.47;;;;;;;9.52;58.80;100457.81;4996965;28;20042;-79
2021/05/09 02:33:56;;;;;;;5.65;3.97;;;;;;;9.66;58.39;100465.44;5010523;28;20466;-80
2021/05/09 02:37:07;;;;;;;6.65;4.10;;;;;;;9.69;57.18;100461.00;5003866;28;20046;-83
2021/05/09 02:44:35;;;;;;;6.38;3.75;;;;;;;9.63;57.33;100455.84;4958739;28;20081;-82
2021/05/09 02:47:02;;;;;;;4.00;3.60;;;;;;;9.59;57.34;100448.91;4955146;28;20069;-82
2021/05/09 02:49:28;;;;;;;4.15;3.72;;;;;;;9.69;58.62;100455.72;5016652;28;20430;-83
2021/05/09 02:51:54;;;;;;;5.35;3.90;;;;;;;9.70;57.85;100453.94;4976205;28;20049;-82
2021/05/09 02:54:20;;;;;;;5.20;4.20;;;;;;;9.73;58.71;100457.38;5010874;28;20030;-82
2021/05/09 02:56:47;;;;;;;5.07;4.57;;;;;;;9.72;58.72;100450.38;4995275;28;20085;-81
2021/05/09 02:59:13;;;;;;;5.38;4.00;;;;;;;9.77;59.85;100453.78;4977678;28;20541;-81
2021/05/09 03:01:39;;;;;;;9.00;3.75;;;;;;;9.82;59.62;100457.19;4993374;28;20445;-81
2021/05/09 03:04:05;;;;;;;4.10;3.72;;;;;;;9.82;58.54;100451.06;4994690;28;20049;-82
2021/05/09 03:06:32;;;;;;;4.63;3.85;;;;;;;9.79;58.82;100448.47;4962784;28;20042;-81
2021/05/09 03:08:58;;;;;;;5.78;4.07;;;;;;;9.92;57.54;100449.09;5011422;28;20042;-82
2021/05/09 03:11:28;;;;;;;4.97;3.85;;;;;;;9.93;58.67;100451.72;4994188;28;20050;-83
2021/05/09 03:13:56;;;;;;;5.53;3.70;;;;;;;9.99;57.45;100461.25;4995335;28;20128;-82
2021/05/09 03:16:23;;;;;;;4.90;3.60;;;;;;;9.98;57.43;100457.75;5010043;28;20084;-82
2021/05/09 03:18:49;;;;;;;4.57;3.67;;;;;;;9.93;57.87;100457.00;4979098;28;20052;-81
2021/05/09 03:21:16;;;;;;;4.93;3.58;;;;;;;9.97;57.26;100466.56;4994692;28;20585;-81
2021/05/09 03:23:42;;;;;;;5.20;3.55;;;;;;;10.03;57.29;100450.59;4996410;28;20067;-81
2021/05/09 03:26:08;;;;;;;4.72;3.60;;;;;;;10.02;59.41;100451.50;4995700;28;20050;-81
2021/05/09 03:28:35;;;;;;;4.82;3.47;;;;;;;9.94;62.61;100461.38;5012632;28;20051;-81
2021/05/09 03:31:01;;;;;;;4.80;3.85;;;;;;;9.90;62.09;100458.81;4995220;28;20038;-80
2021/05/09 03:33:27;;;;;;;6.82;4.30;;;;;;;9.93;62.65;100453.50;4979738;28;20042;-80
2021/05/09 03:35:53;;;;;;;4.40;4.00;;;;;;;9.90;62.66;100451.75;5012422;28;20070;-81
2021/05/09 03:38:19;;;;;;;4.68;4.03;;;;;;;9.82;61.49;100451.06;4979417;28;20038;-80
2021/05/09 03:40:45;;;;;;;5.05;3.55;;;;;;;9.77;62.16;100445.88;4979924;28;20053;-81
2021/05/09 03:43:12;;;;;;;5.65;4.25;;;;;;;9.71;62.98;100445.13;5012537;28;20041;-81
2021/05/09 03:45:38;;;;;;;4.03;3.53;;;;;;;9.80;61.88;100448.44;4996538;28;20038;-80
2021/05/09 03:48:04;;;;;;;4.20;3.70;;;;;;;9.81;61.39;100446.69;4997090;28;20392;-81
2021/05/09 03:50:30;;;;;;;4.93;3.75;;;;;;;9.79;61.27;100446.72;4979135;28;20042;-80
2021/05/09 03:52:56;;;;;;;5.65;3.78;;;;;;;9.93;60.50;100448.22;4979732;28;20054;-80
2021/05/09 03:55:23;;;;;;;4.22;3.70;;;;;;;9.87;61.02;100446.56;4998160;28;20069;-80
2021/05/09 03:57:49;;;;;;;3.95;3.40;;;;;;;9.89;61.25;100450.03;5003752;28;20037;-80
2021/05/09 04:00:16;;;;;;;4.90;3.63;;;;;;;10.05;60.30;100429.47;4998340;28;20057;-80
2021/05/09 04:02:42;;;;;;;4.13;3.63;;;;;;;10.03;59.51;100442.69;5011876;28;20044;-80
2021/05/09 04:05:10;;;;;;;4.35;3.85;;;;;;;10.11;59.77;100434.59;4994381;28;20038;-80
2021/05/09 04:07:37;;;;;;;6.32;3.58;;;;;;;10.16;59.69;100435.34;4994562;28;20046;-81
2021/05/09 04:10:04;;;;;;;4.72;3.70;;;;;;;10.08;60.85;100434.66;5056063;23;20280;-84
2021/05/09 04:12:30;;;;;;;4.82;3.83;;;;;;;10.18;60.55;100432.72;5018448;28;20049;-82
2021/05/09 04:14:57;;;;;;;4.45;3.85;;;;;;;10.14;61.27;100445.09;5007068;28;20053;-82
2021/05/09 04:17:23;;;;;;;4.60;3.75;;;;;;;10.20;61.81;100437.03;5025905;28;20049;-83
2021/05/09 04:19:49;;;;;;;5.45;3.65;;;;;;;10.26;59.05;100428.16;5033224;28;20574;-85
2021/05/09 04:22:15;;;;;;;4.93;3.60;;;;;;;10.36;60.38;100429.69;5006065;28;20056;-84
2021/05/09 04:24:41;;;;;;;5.72;4.38;;;;;;;10.41;61.47;100435.69;5021193;28;20043;-83
2021/05/09 04:27:08;;;;;;;5.32;3.88;;;;;;;10.49;59.30;100430.25;5040450;28;20408;-84
2021/05/09 04:29:34;;;;;;;4.75;3.65;;;;;;;10.42;59.87;100433.03;5019049;28;20041;-83
2021/05/09 04:32:00;;;;;;;4.47;3.33;;;;;;;10.50;59.13;100435.47;5027180;28;20500;-83
2021/05/09 04:34:27;;;;;;;4.68;3.63;;;;;;;10.59;58.96;100437.03;5038145;28;20065;-82
2021/05/09 04:36:53;;;;;;;5.10;3.67;;;;;;;10.56;60.63;100427.41;5025652;28;20051;-83
2021/05/09 04:39:19;;;;;;;5.95;3.67;;;;;;;10.49;59.64;100436.38;5039090;28;20048;-82
2021/05/09 04:41:45;;;;;;;3.78;3.38;;;;;;;10.46;60.07;100425.03;5027357;28;20179;-81
2021/05/09 04:44:12;;;;;;;3.30;3.00;;;;;;;10.46;60.46;100427.69;5049688;28;20037;-86
2021/05/09 04:46:38;;;;;;;5.63;3.60;;;;;;;10.29;61.15;100428.94;5048801;28;20041;-84
2021/05/09 04:49:04;;;;;;;3.78;3.20;;;;;;;10.30;61.61;100425.38;5024015;28;20057;-83
2021/05/09 04:51:30;;;;;;;4.82;3.30;;;;;;;10.15;61.74;100423.06;5022139;28;20045;-84
2021/05/09 04:53:58;;;;;;;4.53;3.53;;;;;;;10.12;61.90;100421.38;5023968;28;20572;-83
2021/05/09 04:56:24;;;;;;;5.88;3.50;;;;;;;10.21;61.43;100422.06;5022319;28;20041;-85
2021/05/09 04:58:54;;;;;;;4.18;3.42;;;;;;;10.46;60.66;100417.97;5007406;28;20490;-85
2021/05/09 05:01:21;;;;;;;4.80;3.88;;;;;;;10.61;61.58;100409.69;5028978;28;20049;-85
2021/05/09 05:03:47;;;;;;;4.35;3.17;;;;;;;10.65;60.89;100408.69;5018399;28;20041;-85
2021/05/09 05:06:15;;;;;;;3.67;3.28;;;;;;;10.52;60.98;100416.97;5039649;28;20064;-87
2021/05/09 05:08:41;;;;;;;4.05;3.33;;;;;;;10.46;60.34;100417.13;5034438;28;20037;-85
2021/05/09 05:11:07;;;;;;;4.18;3.70;;;;;;;10.55;60.03;100417.75;5039529;28;20040;-83
2021/05/09 05:13:34;;;;;;;3.97;3.22;;;;;;;10.39;62.01;100417.25;5040487;28;20041;-82
2021/05/09 05:16:06;;;;;;;5.50;3.55;;;;;;;10.46;61.95;100412.69;5039926;28;20654;-84
2021/05/09 05:18:36;;;;;;;4.40;3.15;;;;;;;10.43;61.64;100412.78;5025602;28;20068;-83
2021/05/09 05:21:04;;;;;;;4.53;3.60;;;;;;;10.49;60.99;100415.25;5023880;28;20589;-83
2021/05/09 05:23:30;;;;;;;4.57;3.28;;;;;;;10.48;62.29;100416.16;5040618;28;20460;-83
2021/05/09 05:25:57;;;;;;;4.18;3.55;;;;;;;10.49;61.54;100417.03;5023387;28;20041;-82
2021/05/09 05:28:23;;;;;;;4.60;3.08;;;;;;;10.56;61.26;100416.00;5007832;28;20083;-84
2021/05/09 05:30:50;;;;;;;4.15;3.17;;;;;;;10.73;61.62;100418.22;5008031;28;20044;-87
2021/05/09 05:33:30;;;;;;;3.85;3.22;;;;;;;10.82;62.74;100420.63;5008883;28;20069;-82
2021/05/09 05:35:58;;;;;;;4.43;3.10;;;;;;;10.91;60.39;100428.31;5020149;28;20055;-84
2021/05/09 05:38:25;;;;;;;4.88;3.45;;;;;;;10.93;60.70;100434.41;5038986;28;20045;-82
2021/05/09 05:40:55;;;;;;;3.88;3.00;;;;;;;10.86;61.86;100435.50;5030907;28;20041;-81
2021/05/09 05:43:26;;;;;;;4.80;3.00;;;;;;;10.93;61.63;100423.84;5004678;28;20139;-86
2021/05/09 05:45:52;;;;;;;3.97;3.47;;;;;;;10.98;62.65;100428.13;5033939;28;20033;-83
2021/05/09 05:48:19;;;;;;;31.15;26.45;;;;;;;11.16;61.37;100432.06;5044343;28;20041;-83
2021/05/09 05:50:46;;;;;;;5.30;4.50;;;;;;;11.40;61.02;100434.94;5018279;28;20076;-80
2021/05/09 05:53:16;;;;;;;3.95;3.20;;;;;;;11.75;60.06;100432.19;5022815;28;20049;-81
2021/05/09 05:55:43;;;;;;;4.35;3.30;;;;;;;11.92;59.63;100429.06;5050650;28;20037;-82
2021/05/09 05:58:09;;;;;;;2.97;2.60;;;;;;;11.85;59.58;100430.16;5015386;28;20045;-82
2021/05/09 06:00:35;;;;;;;5.55;3.55;;;;;;;12.36;57.43;100425.09;5030199;28;20072;-81
2021/05/09 06:03:02;;;;;;;3.58;3.15;;;;;;;13.47;55.32;100428.41;5051503;28;20492;-81
2021/05/09 06:05:28;;;;;;;4.03;3.25;;;;;;;13.85;53.09;100434.09;5035461;28;20091;-82
2021/05/09 06:07:54;;;;;;;5.15;3.20;;;;;;;13.88;54.45;100423.38;5035610;28;20038;-81
2021/05/09 06:10:21;;;;;;;8.27;5.45;;;;;;;13.92;54.16;100422.31;5049215;28;20048;-84
2021/05/09 06:12:47;;;;;;;4.85;3.72;;;;;;;14.04;53.95;100429.84;5033178;28;20049;-82
2021/05/09 06:15:15;;;;;;;7.57;5.10;;;;;;;14.82;52.28;100432.06;5018322;28;20461;-84
2021/05/09 06:17:44;;;;;;;3.47;2.97;;;;;;;15.98;47.68;100424.31;5018143;28;20052;-83
2021/05/09 06:20:11;;;;;;;3.60;3.20;;;;;;;17.15;46.53;100430.16;5017285;28;20051;-83
2021/05/09 06:22:38;;;;;;;3.55;2.58;;;;;;;18.23;44.65;100423.50;5034821;28;20404;-84
2021/05/09 06:25:05;;;;;;;3.92;3.00;;;;;;;19.00;41.84;100417.31;5017851;28;20037;-86
2021/05/09 06:27:31;;;;;;;3.08;2.78;;;;;;;19.58;41.55;100428.06;5033765;28;20038;-82
2021/05/09 06:29:57;;;;;;;2.92;2.63;;;;;;;19.99;39.62;100424.63;5043449;28;20104;-80
2021/05/09 06:32:24;;;;;;;3.25;2.60;;;;;;;19.93;40.74;100425.91;5041355;28;20037;-80
2021/05/09 06:34:51;;;;;;;3.65;3.33;;;;;;;19.75;40.46;100423.50;5024796;28;20366;-79
2021/05/09 06:37:17;;;;;;;2.85;2.30;;;;;;;19.37;40.95;100427.56;5017612;28;20045;-80
2021/05/09 06:39:43;;;;;;;3.42;2.50;;;;;;;18.92;41.45;100425.81;5015509;28;20059;-83
2021/05/09 06:42:10;;;;;;;3.47;2.65;;;;;;;18.51;45.51;100426.34;5001815;28;20048;-83
2021/05/09 06:44:40;;;;;;;3.28;2.60;;;;;;;18.16;44.00;100424.78;5012961;28;20037;-81
2021/05/09 06:47:06;;;;;;;3.05;2.53;;;;;;;17.82;43.36;100429.31;5033042;28;20038;-82
2021/05/09 06:49:33;;;;;;;3.95;2.45;;;;;;;17.85;46.10;100421.13;5033565;28;20584;-80
2021/05/09 06:51:59;;;;;;;3.15;2.40;;;;;;;17.82;46.21;100410.59;5020269;28;20049;-80
2021/05/09 06:54:25;;;;;;;4.10;2.65;;;;;;;17.88;46.34;100415.63;5012041;28;20056;-82
2021/05/09 06:56:52;;;;;;;3.97;2.70;;;;;;;17.97;44.90;100414.25;5018706;28;20041;-81
2021/05/09 06:59:18;;;;;;;3.08;2.25;;;;;;;18.13;45.28;100422.28;5042031;28;20049;-81
2021/05/09 07:01:44;;;;;;;3.42;2.55;;;;;;;18.27;46.58;100425.06;5033827;28;20075;-85
2021/05/09 07:04:11;;;;;;;3.75;2.97;;;;;;;18.34;44.79;100415.75;5022161;28;20053;-83
2021/05/09 07:06:37;;;;;;;3.03;2.40;;;;;;;18.44;44.76;100419.63;5028196;28;20055;-85
2021/05/09 07:09:09;;;;;;;4.15;2.40;;;;;;;18.53;43.44;100418.25;5040646;28;20048;-86
2021/05/09 07:11:37;;;;;;;3.00;2.60;;;;;;;18.68;45.99;100417.41;5019132;28;20056;-85
2021/05/09 07:14:04;;;;;;;2.55;2.25;;;;;;;18.79;42.72;100419.44;5058390;28;20071;-86
2021/05/09 07:16:31;;;;;;;3.22;2.92;;;;;;;18.72;44.51;100429.63;5036033;28;20041;-87
2021/05/09 07:19:02;;;;;;;3.28;2.40;;;;;;;18.69;44.96;100418.25;5003151;28;20368;-83
2021/05/09 07:21:33;;;;;;;3.33;2.35;;;;;;;18.48;42.91;100415.81;5042076;28;20124;-83
2021/05/09 07:24:00;;;;;;;2.90;2.13;;;;;;;18.41;45.88;100416.25;5038176;28;20063;-84
2021/05/09 07:26:26;;;;;;;3.40;2.13;;;;;;;18.32;43.88;100419.44;5026561;28;20055;-84
2021/05/09 07:28:52;;;;;;;2.42;2.03;;;;;;;18.25;46.81;100413.59;5038130;28;20041;-83
2021/05/09 07:31:18;;;;;;;2.75;2.38;;;;;;;18.31;47.05;100412.38;5022464;28;20040;-83
2021/05/09 07:33:45;;;;;;;3.03;2.35;;;;;;;18.37;46.60;100404.88;5031417;28;20051;-81
2021/05/09 07:36:11;;;;;;;2.95;2.08;;;;;;;18.53;45.96;100408.41;5037979;28;20052;-83
2021/05/09 07:38:37;;;;;;;2.45;2.25;;;;;;;18.74;46.36;100406.31;5017733;28;20123;-85
2021/05/09 07:41:04;;;;;;;2.47;1.98;;;;;;;18.73;46.30;100409.94;5018540;28;20041;-84
2021/05/09 07:43:31;;;;;;;3.30;2.20;;;;;;;18.52;45.42;100409.34;5017675;28;20460;-85
2021/05/09 07:45:58;;;;;;;5.68;2.20;;;;;;;18.57;46.02;100411.75;5000023;28;20417;-84
2021/05/09 07:48:24;;;;;;;2.45;2.10;;;;;;;18.50;44.37;100413.94;5026516;28;20033;-84
2021/05/09 07:50:51;;;;;;;3.17;2.28;;;;;;;18.41;45.93;100408.22;5001506;28;20045;-83
2021/05/09 07:53:18;;;;;;;3.58;2.40;;;;;;;18.18;44.75;100409.53;5025878;28;20128;-84
2021/05/09 07:55:45;;;;;;;2.63;2.05;;;;;;;18.29;45.09;100402.63;5028586;28;20099;-82
2021/05/09 07:58:19;;;;;;;2.97;2.30;;;;;;;18.34;46.47;100405.06;5046317;28;20045;-84
2021/05/09 08:00:46;;;;;;;3.35;2.60;;;;;;;18.41;47.33;100395.69;5020272;28;20060;-83
2021/05/09 08:03:12;;;;;;;3.80;2.50;;;;;;;18.49;47.52;100395.28;5026669;28;20037;-81
2021/05/09 08:05:39;;;;;;;4.30;3.50;;;;;;;18.60;46.10;100395.53;5024930;28;20117;-84
2021/05/09 08:08:06;;;;;;;3.88;2.22;;;;;;;18.66;45.74;100405.03;5021938;28;20067;-81
2021/05/09 08:10:36;;;;;;;3.25;2.85;;;;;;;18.73;46.50;100398.38;5013985;28;20041;-82
2021/05/09 08:13:07;;;;;;;2.40;2.17;;;;;;;18.73;44.28;100401.91;5040109;28;20051;-84
2021/05/09 08:15:33;;;;;;;2.97;2.00;;;;;;;18.76;45.97;100406.25;5066537;28;20033;-82
2021/05/09 08:18:00;;;;;;;3.28;1.92;;;;;;;18.94;46.21;100397.13;5041766;28;20052;-81
2021/05/09 08:20:26;;;;;;;2.30;2.10;;;;;;;19.13;46.30;100395.06;5038634;28;20044;-83
2021/05/09 08:22:53;;;;;;;2.30;2.00;;;;;;;19.34;45.52;100394.75;5038899;28;20096;-81
2021/05/09 08:25:19;;;;;;;3.17;2.13;;;;;;;19.29;43.68;100396.81;5040727;28;20124;-82
2021/05/09 08:27:48;;;;;;;3.00;2.08;;;;;;;19.41;46.66;100393.38;5025781;28;20064;-81
2021/05/09 08:30:17;;;;;;;2.45;2.08;;;;;;;19.67;44.13;100387.34;5025708;28;20041;-83
2021/05/09 08:32:43;;;;;;;2.35;2.10;;;;;;;19.95;44.68;100390.94;5037927;28;20064;-82
2021/05/09 08:35:12;;;;;;;2.67;2.00;;;;;;;20.23;42.75;100396.25;5010161;28;20041;-81
2021/05/09 08:37:40;;;;;;;3.10;2.08;;;;;;;20.38;42.21;100388.19;5019567;28;20049;-82
2021/05/09 08:40:08;;;;;;;2.42;2.05;;;;;;;20.67;45.24;100384.44;5040262;28;20045;-83
2021/05/09 08:42:35;;;;;;;2.20;1.85;;;;;;;20.93;43.63;100380.00;5037897;28;20053;-82
2021/05/09 08:45:01;;;;;;;2.85;2.10;;;;;;;21.12;41.17;100376.94;5039294;28;20064;-86
2021/05/09 08:47:46;;;;;;;4.10;2.15;;;;;;;21.32;40.37;100376.44;5038629;28;20045;-83
2021/05/09 08:50:18;;;;;;;2.25;2.05;;;;;;;21.48;41.51;100378.06;5046877;28;20045;-82
2021/05/09 08:52:46;;;;;;;2.50;2.10;;;;;;;21.60;41.54;100380.72;5021513;28;20139;-82
2021/05/09 08:55:18;;;;;;;3.05;2.67;;;;;;;21.77;41.56;100360.72;5025961;28;20052;-83
2021/05/09 08:57:44;;;;;;;2.40;2.20;;;;;;;21.90;42.34;100361.56;5022759;28;20047;-83
2021/05/09 09:00:13;;;;;;;3.08;1.98;;;;;;;21.80;40.84;100368.56;5023014;28;20505;-82
2021/05/09 09:02:54;;;;;;;3.70;2.00;;;;;;;21.69;40.19;100365.78;5030013;28;20069;-83
2021/05/09 09:05:40;;;;;;;2.53;1.98;;;;;;;21.70;41.03;100354.06;5029288;28;20145;-83
2021/05/09 09:08:10;;;;;;;2.58;1.85;;;;;;;21.70;40.76;100367.53;5037653;28;20564;-84
2021/05/09 09:10:42;;;;;;;2.00;1.80;;;;;;;21.56;41.38;100356.88;5052718;28;20048;-82
2021/05/09 09:13:31;;;;;;;2.40;2.20;;;;;;;21.62;40.95;100364.53;5032496;28;20037;-82
2021/05/09 09:16:00;;;;;;;2.55;1.90;;;;;;;21.63;41.69;100358.16;5039202;28;20252;-81
2021/05/09 09:18:39;;;;;;;2.88;1.90;;;;;;;21.55;40.52;100368.59;5057346;28;20049;-83
2021/05/09 09:21:21;;;;;;;2.75;1.70;;;;;;;21.53;41.70;100368.72;5024843;28;20041;-82
2021/05/09 09:23:52;;;;;;;2.28;1.80;;;;;;;21.64;41.79;100359.88;5037868;28;20457;-82
2021/05/09 09:26:33;;;;;;;2.05;1.65;;;;;;;21.74;42.27;100352.88;5029216;28;20038;-82
2021/05/09 09:29:01;;;;;;;3.15;1.60;;;;;;;22.02;42.30;100353.56;5055997;28;20046;-81
2021/05/09 09:31:40;;;;;;;2.55;1.90;;;;;;;22.27;42.55;100348.13;5039193;28;20048;-82
2021/05/09 09:34:06;;;;;;;2.42;1.83;;;;;;;22.47;41.81;100349.34;5006867;28;20049;-82
2021/05/09 09:36:33;;;;;;;4.05;2.08;;;;;;;22.58;39.92;100356.63;5019106;28;20041;-85
2021/05/09 09:38:59;;;;;;;2.45;1.90;;;;;;;22.73;40.64;100361.72;5023646;28;20390;-82
2021/05/09 09:41:26;;;;;;;2.67;1.80;;;;;;;22.91;38.12;100358.63;5026858;28;20581;-82
2021/05/09 09:44:02;;;;;;;3.15;1.75;;;;;;;22.87;39.69;100355.31;5002958;28;20049;-82
2021/05/09 09:46:34;;;;;;;2.78;1.85;;;;;;;23.13;40.15;100350.59;5004263;28;20053;-83
2021/05/09 09:49:21;;;;;;;3.55;1.80;;;;;;;23.33;39.82;100356.25;5010863;28;20441;-83
2021/05/09 09:51:56;;;;;;;2.25;1.60;;;;;;;23.37;38.17;100336.16;5017164;28;20406;-83
2021/05/09 09:54:44;;;;;;;2.92;1.50;;;;;;;23.33;37.53;100338.25;5000843;28;20060;-83
2021/05/09 09:57:22;;;;;;;1.52;1.42;;;;;;;23.39;38.09;100337.78;5064421;28;20053;-85
2021/05/09 10:00:09;;;;;;;4.13;1.70;;;;;;;23.52;38.51;100346.59;5039034;28;20072;-86
2021/05/09 10:02:38;;;;;;;1.95;1.50;;;;;;;23.48;37.27;100328.97;5021173;28;20037;-86
2021/05/09 10:05:05;;;;;;;2.53;1.70;;;;;;;23.58;39.46;100331.78;5037548;28;20037;-83
2021/05/09 10:07:32;;;;;;;2.72;1.90;;;;;;;23.66;39.64;100329.34;5020077;28;20041;-84
2021/05/09 10:09:59;;;;;;;1.75;1.50;;;;;;;23.70;39.24;100328.09;5036150;28;20501;-83
2021/05/09 10:12:26;;;;;;;4.20;1.70;;;;;;;23.73;38.17;100340.50;5030095;28;20041;-83
2021/05/09 10:14:54;;;;;;;1.65;1.40;;;;;;;23.65;37.17;100330.34;5029999;28;20409;-86
2021/05/09 10:17:21;;;;;;;2.90;1.70;;;;;;;23.91;37.63;100333.63;5033092;28;20049;-89
2021/05/09 10:19:48;;;;;;;4.47;1.75;;;;;;;24.13;36.51;100312.00;5107997;23;20145;-82
2021/05/09 10:22:27;;;;;;;3.55;1.70;;;;;;;24.23;37.29;100313.94;4963716;28;20049;-83
2021/05/09 10:24:55;;;;;;;2.95;1.60;;;;;;;24.33;37.57;100317.63;5003215;28;20046;-86
2021/05/09 10:27:41;;;;;;;1.73;1.60;;;;;;;24.46;37.48;100307.50;4981015;28;20073;-83
2021/05/09 10:30:13;;;;;;;2.15;1.60;;;;;;;24.76;37.41;100305.91;4993065;28;20038;-85
2021/05/09 10:32:44;;;;;;;2.28;1.50;;;;;;;24.75;35.78;100296.09;4979689;28;20038;-83
2021/05/09 10:35:10;;;;;;;2.38;1.70;;;;;;;24.68;36.22;100301.13;4994096;28;20038;-83
2021/05/09 10:37:40;;;;;;;2.35;1.40;;;;;;;24.25;35.83;100293.91;4980555;28;20537;-83
2021/05/09 10:40:39;;;;;;;1.85;1.60;;;;;;;24.63;38.58;100292.56;5024889;28;20049;-84
2021/05/09 10:43:08;;;;;;;2.28;1.52;;;;;;;24.47;34.05;100292.13;4993118;28;20057;-83
2021/05/09 10:45:34;;;;;;;2.08;1.58;;;;;;;24.59;36.49;100291.97;5007536;28;20041;-84
2021/05/09 10:48:16;;;;;;;4.95;1.70;;;;;;;24.89;37.96;100282.25;4987632;28;20136;-83
2021/05/09 10:50:43;;;;;;;2.60;1.50;;;;;;;24.90;34.34;100278.56;4987332;28;20483;-84
2021/05/09 10:53:30;;;;;;;2.45;1.55;;;;;;;25.17;37.71;100268.06;5031126;28;20105;-84
2021/05/09 10:55:57;;;;;;;3.20;1.40;;;;;;;25.25;37.27;100279.06;5018239;28;20045;-83
2021/05/09 10:58:39;;;;;;;3.53;1.92;;;;;;;25.34;34.88;100265.72;4998085;28;20467;-84
2021/05/09 11:01:08;;;;;;;2.10;1.58;;;;;;;25.36;35.14;100256.47;5001167;28;20050;-83
2021/05/09 11:03:35;;;;;;;3.45;1.40;;;;;;;25.48;34.45;100263.53;4996393;28;20855;-83
2021/05/09 11:06:07;;;;;;;1.45;1.30;;;;;;;25.59;34.60;100267.97;4982910;28;20123;-82
2021/05/09 11:08:42;;;;;;;1.88;1.77;;;;;;;25.72;35.46;100265.03;5011716;28;20048;-82
2021/05/09 11:11:19;;;;;;;2.92;1.42;;;;;;;25.81;34.91;100258.78;5009689;28;20129;-82
2021/05/09 11:14:00;;;;;;;1.40;1.30;;;;;;;25.69;36.17;100262.59;5011059;28;20091;-82
2021/05/09 11:16:28;;;;;;;2.35;1.40;;;;;;;25.63;33.60;100263.97;5023226;28;20037;-82
2021/05/09 11:19:17;;;;;;;2.42;1.77;;;;;;;25.62;34.33;100258.72;4995584;28;20101;-82
2021/05/09 11:21:47;;;;;;;2.22;1.50;;;;;;;25.21;32.67;100238.91;5005718;28;20545;-82
2021/05/09 11:24:24;;;;;;;1.60;1.50;;;;;;;25.21;34.55;100226.25;4981267;28;20066;-81
2021/05/09 11:26:55;;;;;;;3.53;1.77;;;;;;;25.35;35.22;100226.88;4976567;28;20145;-81
2021/05/09 11:29:23;;;;;;;2.53;1.50;;;;;;;25.51;35.03;100221.81;4977899;28;20050;-82
2021/05/09 11:31:51;;;;;;;2.45;1.40;;;;;;;25.63;34.38;100234.22;4995950;28;20144;-81
2021/05/09 11:34:19;;;;;;;1.77;1.40;;;;;;;25.51;34.56;100219.97;4981381;28;20046;-82
2021/05/09 11:36:48;;;;;;;2.67;1.88;;;;;;;25.65;33.35;100221.44;4962196;28;20045;-82
2021/05/09 11:39:16;;;;;;;2.00;1.42;;;;;;;25.80;33.57;100225.47;4962675;28;20046;-83